Terminal Aerodrome Forecast
Issued by NWS

Current Version | Previous Version | Text Only | Print | Product List | Glossary On
Versions: 1 2 3 4 5 6 7 8 9 10 11 12 13 14 15 16
000
FTAK31 PAFA 241128
TAFASC
TAF
PASC 241128Z 2412/2512 24013KT 6SM -SN BR SCT035 OVC045
      TEMPO 2412/2415 3SM -SN BR=

USA.gov is the U.S. government's official web portal to all federal, state and local government web resources and services.